Decoded Metar for VVDN (DANANG in VIET NAM) (IATA:DAD) | Meteo·Mobile Aviation Weather
aviador You're here:

VVDN Decoded Metar

DANANG in VIET NAM
Report Time2019-07-22 16:30:00
UTC Time2019-07-22 16:51:58
Flight Rules vfr VFR
WindVRB at 02 kt
Visibility9999 m
Phenomena:N/A
Clouds:Few 013 Hf
Broken 060 Hf
Expected CloudBase > 1,200 ft AGL from Temp-Dew spread
Ceiling6,000 ft
Temp28°C (ISA +13)
Dew Point25°C (84% RH)
Heat Index32.7°C
QNH1006 hPa
Density Alt2,175 ft
Elevation23 ft
Report Wrong Elevation
Raw Report
VVDN 221630Z VRB02KT 9999 FEW013 BKN060 28/25 Q1006 NOSIG=

Extra information for VVDN:More info

Metar Taf Metar & Taf Last 4 Metars F.Rules Stats Wind Profile Meteogram Temp Stats Airport Information Weather charts Add Link Nearby VenuesMetar ALERT Operation Metar Decoded Social comments